Time;durP1;ratioP1;P1;durP2;ratioP2;P2;SDS_P1;SDS_P2;PMS_P1;PMS_P2;Temp;Humidity;BMP_temperature;BMP_pressure;BME280_temperature;BME280_humidity;BME280_pressure;Samples;Min_cycle;Max_cycle;Signal;HPM_P1;HPM_P2
2023/09/21 00:01:43;;;;;;;6.15;4.55;;;;;;;20.67;67.89;98520.03;5084588;28;20049;-75
2023/09/21 00:04:10;;;;;;;7.35;4.22;;;;;;;20.69;68.43;98518.00;5085178;28;20060;-75
2023/09/21 00:06:37;;;;;;;6.00;4.38;;;;;;;20.66;68.13;98521.88;5084798;28;20068;-75
2023/09/21 00:09:07;;;;;;;8.60;4.82;;;;;;;20.42;68.27;98516.50;5085474;28;20071;-74
2023/09/21 00:11:36;;;;;;;7.93;4.57;;;;;;;20.03;68.63;98449.84;5084062;28;20120;-75
2023/09/21 00:14:03;;;;;;;8.93;5.55;;;;;;;20.15;68.32;98466.50;5085450;28;20043;-75
2023/09/21 00:16:30;;;;;;;6.22;4.25;;;;;;;20.16;69.09;98469.00;5070268;28;20044;-75
2023/09/21 00:18:57;;;;;;;6.85;4.45;;;;;;;20.11;68.77;98454.38;5088755;28;20310;-75
2023/09/21 00:21:23;;;;;;;8.45;5.43;;;;;;;20.40;69.31;98508.59;5087978;28;20072;-75
2023/09/21 00:23:51;;;;;;;5.95;4.20;;;;;;;20.32;69.40;98510.44;5088434;28;20048;-75
2023/09/21 00:26:20;;;;;;;8.80;4.63;;;;;;;20.40;69.11;98507.75;5088663;28;20292;-75
2023/09/21 00:28:50;;;;;;;8.18;4.90;;;;;;;20.49;68.98;98517.50;5088324;28;20370;-75
2023/09/21 00:31:17;;;;;;;7.93;4.63;;;;;;;20.53;68.64;98507.25;5088263;28;20242;-75
2023/09/21 00:33:44;;;;;;;9.32;4.07;;;;;;;20.54;68.28;98492.78;5088661;28;20288;-75
2023/09/21 00:36:13;;;;;;;5.97;4.40;;;;;;;19.66;68.52;98364.22;5088494;28;20093;-75
2023/09/21 00:38:40;;;;;;;6.43;4.80;;;;;;;20.54;68.52;98492.78;5070651;28;20044;-75
2023/09/21 00:41:07;;;;;;;5.85;4.10;;;;;;;20.49;68.56;98498.66;5088004;28;20239;-75
2023/09/21 00:43:35;;;;;;;6.28;4.53;;;;;;;19.73;69.08;98383.22;5088679;28;20287;-75
2023/09/21 00:46:04;;;;;;;10.27;5.55;;;;;;;19.93;69.97;98491.34;5088036;28;20090;-75
2023/09/21 00:48:33;;;;;;;6.53;4.53;;;;;;;19.98;70.24;98499.75;5087928;28;20040;-74
2023/09/21 00:51:05;;;;;;;8.88;5.35;;;;;;;20.13;69.96;98490.03;5071341;28;20037;-75
2023/09/21 00:53:32;;;;;;;10.00;4.07;;;;;;;20.11;70.13;98487.50;5087669;28;20347;-75
2023/09/21 00:56:03;;;;;;;10.23;4.45;;;;;;;19.43;69.75;98377.44;5087843;28;20040;-74
2023/09/21 00:58:33;;;;;;;7.70;5.03;;;;;;;20.19;69.55;98483.97;5086942;28;20224;-75
2023/09/21 01:01:05;;;;;;;5.82;4.38;;;;;;;20.26;69.74;98489.56;5087921;28;20044;-75
2023/09/21 01:03:37;;;;;;;7.05;4.47;;;;;;;20.24;70.25;98486.22;5070227;28;20123;-75
2023/09/21 01:06:09;;;;;;;8.23;4.05;;;;;;;19.81;69.32;98405.59;5070040;28;20044;-75
2023/09/21 01:08:35;;;;;;;7.63;5.47;;;;;;;20.18;69.70;98471.53;5087890;28;20212;-75
2023/09/21 01:11:08;;;;;;;10.05;4.95;;;;;;;19.99;69.17;98431.50;5087235;28;20055;-75
2023/09/21 01:13:35;;;;;;;7.35;4.82;;;;;;;20.22;69.64;98469.34;5088075;28;20060;-75
2023/09/21 01:16:05;;;;;;;8.27;4.60;;;;;;;20.16;70.04;98477.09;5087808;28;20052;-75
2023/09/21 01:18:32;;;;;;;5.43;4.30;;;;;;;19.42;71.21;98410.69;5088001;28;20338;-75
2023/09/21 01:21:02;;;;;;;8.25;5.30;;;;;;;19.83;71.23;98478.03;5087185;28;20137;-75
2023/09/21 01:23:49;;;;;;;8.40;4.75;;;;;;;20.04;70.50;98464.13;5087228;28;20066;-75
2023/09/21 01:26:18;;;;;;;7.93;4.38;;;;;;;19.97;70.69;98471.19;5087477;28;20040;-75
2023/09/21 01:28:46;;;;;;;7.22;4.50;;;;;;;19.92;71.41;98465.44;5087791;28;20272;-75
2023/09/21 01:31:13;;;;;;;9.23;4.47;;;;;;;19.82;71.42;98462.91;5087762;28;20056;-75
2023/09/21 01:33:43;;;;;;;8.70;5.05;;;;;;;19.63;71.49;98438.97;5087413;28;20052;-75
2023/09/21 01:36:12;;;;;;;5.43;4.60;;;;;;;19.76;71.91;98460.84;5087577;28;20036;-75
2023/09/21 01:38:43;;;;;;;7.38;4.63;;;;;;;19.72;72.14;98456.81;5087294;28;20307;-75
2023/09/21 01:41:10;;;;;;;7.35;4.70;;;;;;;19.69;72.77;98455.28;5086027;28;20049;-75
2023/09/21 01:43:39;;;;;;;9.68;5.80;;;;;;;19.77;71.66;98455.31;5086068;28;20079;-75
2023/09/21 01:46:05;;;;;;;9.18;6.10;;;;;;;19.67;72.27;98457.28;5087256;28;20315;-75
2023/09/21 01:48:33;;;;;;;9.43;5.20;;;;;;;19.56;73.18;98460.28;5086846;28;20207;-75
2023/09/21 01:51:00;;;;;;;7.78;5.38;;;;;;;19.51;72.48;98433.91;5086718;28;20036;-75
2023/09/21 01:53:27;;;;;;;9.18;5.50;;;;;;;19.66;72.64;98441.34;5086991;28;20075;-75
2023/09/21 01:55:55;;;;;;;6.78;4.82;;;;;;;19.20;72.40;98362.91;5085806;28;20048;-76
2023/09/21 01:58:23;;;;;;;7.45;5.13;;;;;;;19.56;72.39;98436.09;5086864;28;20040;-75
2023/09/21 02:00:51;;;;;;;6.97;5.07;;;;;;;19.45;73.86;98431.88;5086728;28;20046;-76
2023/09/21 02:03:19;;;;;;;7.07;5.10;;;;;;;19.44;73.11;98430.19;5086754;28;20047;-76
2023/09/21 02:05:47;;;;;;;8.35;5.65;;;;;;;19.20;72.62;98360.22;5086429;28;20040;-76
2023/09/21 02:08:15;;;;;;;8.40;5.80;;;;;;;19.59;72.84;98414.28;5086660;28;20040;-76
2023/09/21 02:10:43;;;;;;;6.90;5.35;;;;;;;19.28;72.91;98373.69;5086616;28;20049;-75
2023/09/21 02:13:11;;;;;;;6.05;5.38;;;;;;;19.27;73.07;98389.97;5086870;28;20047;-76
2023/09/21 02:15:39;;;;;;;8.73;5.68;;;;;;;19.32;73.51;98414.50;5086609;28;20102;-76
2023/09/21 02:18:07;;;;;;;8.05;5.82;;;;;;;18.81;74.62;98363.44;5085391;28;20086;-76
2023/09/21 02:20:36;;;;;;;9.98;5.53;;;;;;;18.83;74.52;98364.13;5086070;28;20060;-76
2023/09/21 02:23:04;;;;;;;8.38;5.35;;;;;;;19.34;73.74;98412.47;5068686;28;20040;-76
2023/09/21 02:25:34;;;;;;;7.53;5.45;;;;;;;18.86;74.04;98353.06;5086304;28;20048;-76
2023/09/21 02:28:09;;;;;;;8.40;6.05;;;;;;;18.99;74.49;98406.31;5086064;28;20063;-76
2023/09/21 02:30:40;;;;;;;7.70;6.03;;;;;;;18.48;75.09;98315.94;5068831;28;20120;-76
2023/09/21 02:33:08;;;;;;;8.50;5.45;;;;;;;18.76;75.10;98351.50;5086794;28;20074;-76
2023/09/21 02:35:35;;;;;;;7.78;5.45;;;;;;;19.15;74.43;98395.63;5086220;28;20044;-76
2023/09/21 02:38:05;;;;;;;10.13;5.75;;;;;;;19.21;74.58;98392.28;5085427;28;20045;-76
2023/09/21 02:40:32;;;;;;;12.45;6.93;;;;;;;18.53;74.55;98311.81;5069061;28;20287;-76
2023/09/21 02:42:58;;;;;;;7.75;6.55;;;;;;;18.71;75.43;98362.72;5086096;28;20044;-76
2023/09/21 02:45:26;;;;;;;10.05;6.47;;;;;;;18.76;75.13;98344.28;5086112;28;20052;-76
2023/09/21 02:47:55;;;;;;;8.15;6.15;;;;;;;18.42;74.70;98276.34;5069025;28;20075;-76
2023/09/21 02:50:25;;;;;;;9.30;6.18;;;;;;;19.17;74.75;98379.34;5068206;28;20041;-76
2023/09/21 02:52:54;;;;;;;10.05;6.25;;;;;;;18.88;74.66;98334.09;5085699;28;20108;-76
2023/09/21 02:55:21;;;;;;;10.45;6.65;;;;;;;19.23;74.07;98382.22;5085960;28;20040;-75
2023/09/21 02:57:54;;;;;;;7.63;6.53;;;;;;;18.65;74.21;98276.63;5084410;28;20093;-76
2023/09/21 03:00:25;;;;;;;8.10;5.78;;;;;;;19.18;74.06;98375.66;5085501;28;20064;-76
2023/09/21 03:02:55;;;;;;;8.88;5.65;;;;;;;18.31;75.16;98284.66;5085589;28;20379;-76
2023/09/21 03:05:23;;;;;;;8.68;6.70;;;;;;;18.68;75.28;98324.63;5085593;28;20251;-76
2023/09/21 03:07:50;;;;;;;7.80;6.30;;;;;;;18.62;75.56;98296.59;5085792;28;20354;-75
2023/09/21 03:10:18;;;;;;;7.20;6.07;;;;;;;18.77;75.50;98354.03;5085732;28;20040;-76
2023/09/21 03:12:47;;;;;;;7.53;6.78;;;;;;;18.73;76.17;98349.97;5067577;28;20044;-76
2023/09/21 03:15:16;;;;;;;7.35;6.38;;;;;;;18.91;75.35;98358.78;5085620;28;20041;-76
2023/09/21 03:17:43;;;;;;;8.68;6.22;;;;;;;19.04;74.76;98361.00;5085391;28;20296;-76
2023/09/21 03:20:13;;;;;;;8.80;6.57;;;;;;;18.59;74.95;98310.31;5085233;28;20064;-76
2023/09/21 03:22:41;;;;;;;10.35;7.13;;;;;;;18.03;75.47;98233.88;5067691;28;20078;-75
2023/09/21 03:25:11;;;;;;;9.93;6.50;;;;;;;18.65;75.52;98363.34;5085294;28;20232;-76
2023/09/21 03:27:40;;;;;;;9.30;6.43;;;;;;;18.79;75.81;98341.28;5085330;28;20292;-76
2023/09/21 03:30:11;;;;;;;8.93;6.10;;;;;;;18.73;76.25;98333.03;5085498;28;20102;-76
2023/09/21 03:32:40;;;;;;;11.77;6.72;;;;;;;18.61;76.27;98331.63;5085514;28;20063;-76
2023/09/21 03:35:10;;;;;;;8.27;6.57;;;;;;;18.12;76.47;98256.22;5084432;28;20055;-75
2023/09/21 03:37:41;;;;;;;8.00;5.93;;;;;;;18.72;75.89;98337.56;5085541;28;20103;-75
2023/09/21 03:40:10;;;;;;;8.23;6.85;;;;;;;18.92;75.09;98333.63;5085514;28;20037;-76
2023/09/21 03:42:36;;;;;;;9.13;6.47;;;;;;;18.73;76.01;98331.19;5085397;28;20041;-76
2023/09/21 03:45:04;;;;;;;8.32;7.00;;;;;;;18.64;76.79;98334.00;5085801;28;20272;-75
2023/09/21 03:47:30;;;;;;;9.10;5.80;;;;;;;18.59;76.94;98329.09;5067533;28;20096;-76
2023/09/21 03:49:59;;;;;;;9.50;6.82;;;;;;;18.62;76.88;98328.78;5085968;28;20101;-76
2023/09/21 03:52:25;;;;;;;8.38;6.60;;;;;;;18.43;76.47;98283.38;5089301;28;20040;-76
2023/09/21 03:54:54;;;;;;;8.98;7.53;;;;;;;18.30;76.68;98285.66;5072271;28;20315;-75
2023/09/21 03:57:20;;;;;;;9.63;6.55;;;;;;;18.70;76.99;98334.19;5089230;28;20048;-76
2023/09/21 03:59:47;;;;;;;11.73;7.32;;;;;;;18.63;76.01;98292.06;5089196;28;20037;-76
2023/09/21 04:02:14;;;;;;;8.35;6.78;;;;;;;18.75;76.40;98328.34;5088804;28;20040;-76
2023/09/21 04:04:43;;;;;;;8.90;6.43;;;;;;;18.59;75.57;98275.44;5089028;28;20055;-76
2023/09/21 04:07:12;;;;;;;12.00;7.15;;;;;;;18.83;75.94;98329.22;5088935;28;20075;-76
2023/09/21 04:09:39;;;;;;;12.40;7.45;;;;;;;18.73;76.42;98322.28;5088613;28;20059;-76
2023/09/21 04:12:08;;;;;;;7.63;6.32;;;;;;;18.41;77.40;98317.56;5070778;28;20102;-76
2023/09/21 04:14:34;;;;;;;7.72;6.43;;;;;;;18.58;77.34;98319.38;5088642;28;20054;-76
2023/09/21 04:17:03;;;;;;;10.00;6.90;;;;;;;18.26;76.89;98245.75;5088559;28;20058;-76
2023/09/21 04:19:29;;;;;;;6.88;6.18;;;;;;;18.70;76.81;98320.78;5070857;28;20049;-76
2023/09/21 04:21:56;;;;;;;6.63;5.95;;;;;;;18.70;76.59;98320.78;5088659;28;20055;-76
2023/09/21 04:24:23;;;;;;;8.27;5.97;;;;;;;18.75;76.39;98323.81;5088140;28;20048;-75
2023/09/21 04:26:50;;;;;;;8.35;6.45;;;;;;;18.77;76.39;98313.75;5070876;28;20270;-75
2023/09/21 04:29:18;;;;;;;12.93;7.05;;;;;;;18.67;76.87;98313.03;5088694;28;20040;-76
2023/09/21 04:31:45;;;;;;;8.50;6.88;;;;;;;18.49;77.12;98258.59;5088635;28;20157;-76
2023/09/21 04:34:12;;;;;;;9.77;7.60;;;;;;;18.77;76.40;98311.06;5088243;28;20044;-75
2023/09/21 04:36:39;;;;;;;9.73;7.32;;;;;;;18.43;77.62;98307.53;5088453;28;20204;-76
2023/09/21 04:39:05;;;;;;;7.25;6.55;;;;;;;18.65;77.07;98298.94;5088110;28;20036;-75
2023/09/21 04:41:33;;;;;;;9.07;6.60;;;;;;;18.38;77.66;98299.13;5071377;28;20104;-76
2023/09/21 04:44:00;;;;;;;8.57;7.45;;;;;;;17.89;77.56;98224.59;5088172;28;20094;-75
2023/09/21 04:46:28;;;;;;;9.43;8.40;;;;;;;18.30;78.27;98294.53;5070421;28;20040;-76
2023/09/21 04:48:54;;;;;;;10.57;7.22;;;;;;;17.92;79.01;98250.25;5070967;28;20319;-76
2023/09/21 04:51:21;;;;;;;9.25;6.78;;;;;;;17.99;78.89;98245.09;5088231;28;20040;-76
2023/09/21 04:53:48;;;;;;;8.40;6.53;;;;;;;18.34;78.13;98295.06;5070329;28;20086;-76
2023/09/21 04:56:15;;;;;;;8.75;6.93;;;;;;;18.41;78.32;98296.94;5070305;28;20254;-75
2023/09/21 04:58:42;;;;;;;9.52;7.35;;;;;;;18.31;78.04;98303.44;5088319;28;20048;-75
2023/09/21 05:01:10;;;;;;;11.55;6.90;;;;;;;17.85;78.37;98236.63;5069605;28;20102;-75
2023/09/21 05:03:38;;;;;;;9.32;7.22;;;;;;;17.93;78.19;98233.16;5087895;28;20044;-75
2023/09/21 05:06:05;;;;;;;9.25;6.55;;;;;;;18.06;78.87;98256.84;5088034;28;20242;-76
2023/09/21 05:08:36;;;;;;;8.10;6.82;;;;;;;18.18;78.10;98267.16;5070363;28;20115;-75
2023/09/21 05:11:04;;;;;;;7.05;6.35;;;;;;;18.35;78.64;98302.13;5070040;28;20032;-75
2023/09/21 05:13:31;;;;;;;9.65;7.15;;;;;;;17.97;78.52;98255.13;5070035;28;20040;-75
2023/09/21 05:15:57;;;;;;;7.03;6.32;;;;;;;18.47;77.39;98299.00;5087856;28;20055;-76
2023/09/21 05:18:24;;;;;;;10.77;7.97;;;;;;;18.31;77.87;98298.91;5069921;28;20047;-75
2023/09/21 05:20:52;;;;;;;9.30;6.50;;;;;;;17.59;78.56;98191.03;5069780;28;20217;-76
2023/09/21 05:23:19;;;;;;;7.53;6.50;;;;;;;18.30;78.73;98299.06;5070482;28;20052;-76
2023/09/21 05:25:46;;;;;;;9.65;6.90;;;;;;;17.83;77.92;98233.25;5069807;28;20119;-75
2023/09/21 05:28:13;;;;;;;7.78;6.97;;;;;;;18.00;78.29;98254.81;5087536;28;20292;-76
2023/09/21 05:30:39;;;;;;;9.30;7.18;;;;;;;17.99;78.16;98251.28;5069953;28;20133;-76
2023/09/21 05:33:07;;;;;;;7.38;6.28;;;;;;;18.13;78.27;98272.16;5087677;28;20289;-76
2023/09/21 05:35:34;;;;;;;8.55;6.70;;;;;;;17.81;78.62;98247.81;5087115;28;20036;-76
2023/09/21 05:38:05;;;;;;;8.45;7.13;;;;;;;18.11;79.12;98284.88;5086556;28;20059;-76
2023/09/21 05:40:33;;;;;;;8.05;6.53;;;;;;;18.06;79.49;98251.50;5087029;28;20036;-76
2023/09/21 05:43:00;;;;;;;7.00;6.30;;;;;;;18.31;79.02;98287.34;5086979;28;20044;-75
2023/09/21 05:45:27;;;;;;;8.82;6.10;;;;;;;17.98;77.74;98211.25;5086834;28;20220;-75
2023/09/21 05:47:53;;;;;;;11.23;7.43;;;;;;;17.90;77.95;98233.47;5087165;28;20108;-76
2023/09/21 05:50:20;;;;;;;8.13;6.18;;;;;;;18.29;78.59;98292.88;5069275;28;20044;-76
2023/09/21 05:52:47;;;;;;;11.05;7.75;;;;;;;18.35;78.16;98288.69;5087046;28;20048;-76
2023/09/21 05:55:16;;;;;;;8.65;6.70;;;;;;;17.94;78.52;98229.47;5087220;28;20051;-76
2023/09/21 05:57:46;;;;;;;8.27;6.40;;;;;;;18.09;78.85;98276.16;5069120;28;20298;-76
2023/09/21 06:00:14;;;;;;;8.88;6.75;;;;;;;18.23;78.23;98272.88;5086743;28;20118;-76
2023/09/21 06:02:41;;;;;;;10.68;6.50;;;;;;;17.77;78.57;98208.94;5069411;28;20036;-76
2023/09/21 06:05:10;;;;;;;8.90;7.15;;;;;;;17.62;79.00;98195.28;5086754;28;20044;-76
2023/09/21 06:07:37;;;;;;;9.13;6.80;;;;;;;16.85;78.82;98060.25;5086733;28;20143;-76
2023/09/21 06:10:05;;;;;;;9.30;6.75;;;;;;;18.18;78.67;98277.03;5086699;28;20062;-76
2023/09/21 06:12:33;;;;;;;9.07;6.28;;;;;;;18.07;78.96;98266.59;5086021;28;20041;-76
2023/09/21 06:15:00;;;;;;;8.57;6.28;;;;;;;18.07;79.31;98263.91;5069603;28;20086;-75
2023/09/21 06:17:28;;;;;;;7.93;7.13;;;;;;;18.28;79.25;98270.56;5086444;28;20040;-75
2023/09/21 06:19:55;;;;;;;11.05;6.78;;;;;;;17.94;78.50;98229.47;5086125;28;20078;-75
2023/09/21 06:22:22;;;;;;;8.98;7.10;;;;;;;17.92;78.79;98218.06;5085109;28;20044;-75
2023/09/21 06:24:49;;;;;;;13.98;6.28;;;;;;;17.70;79.16;98199.84;5069155;28;20044;-75
2023/09/21 06:27:17;;;;;;;8.65;7.15;;;;;;;17.47;79.36;98154.78;5085965;28;20300;-75
2023/09/21 06:29:45;;;;;;;9.98;6.78;;;;;;;18.01;79.31;98261.84;5086266;28;20127;-75
2023/09/21 06:32:12;;;;;;;8.25;7.32;;;;;;;17.86;79.10;98214.19;5086137;28;20204;-75
2023/09/21 06:34:41;;;;;;;10.43;6.97;;;;;;;17.69;79.01;98168.69;5085803;28;20036;-75
2023/09/21 06:37:08;;;;;;;13.52;7.15;;;;;;;17.70;79.54;98189.97;5068201;28;20305;-75
2023/09/21 06:39:35;;;;;;;9.45;6.90;;;;;;;17.58;78.79;98148.31;5086453;28;20110;-75
2023/09/21 06:42:02;;;;;;;22.83;7.78;;;;;;;17.92;79.01;98226.94;5086124;28;20090;-75
2023/09/21 06:44:29;;;;;;;16.95;6.72;;;;;;;18.13;79.16;98255.22;5085212;28;20060;-75
2023/09/21 06:46:57;;;;;;;9.32;6.07;;;;;;;18.17;78.66;98251.22;5085986;28;20090;-75
2023/09/21 06:49:26;;;;;;;9.80;5.72;;;;;;;18.27;78.37;98247.44;5085919;28;20041;-75
2023/09/21 06:51:56;;;;;;;6.28;5.45;;;;;;;17.14;78.36;98054.63;5085638;28;20051;-75
2023/09/21 06:54:23;;;;;;;8.98;5.72;;;;;;;18.43;78.24;98243.97;5085852;28;20177;-75
2023/09/21 06:56:51;;;;;;;7.78;6.32;;;;;;;18.45;77.88;98230.41;5085654;28;20071;-75
2023/09/21 06:59:17;;;;;;;9.40;6.20;;;;;;;18.19;77.41;98251.91;5085857;28;20326;-75
2023/09/21 07:01:44;;;;;;;7.68;6.05;;;;;;;18.49;76.89;98234.44;5085461;28;20041;-75
2023/09/21 07:04:12;;;;;;;9.80;5.78;;;;;;;18.59;77.18;98229.81;5068519;28;20040;-75
2023/09/21 07:06:40;;;;;;;7.95;5.70;;;;;;;18.46;76.19;98200.75;5085574;28;20052;-75
2023/09/21 07:09:09;;;;;;;9.02;6.35;;;;;;;18.68;76.92;98234.22;5067922;28;20036;-75
2023/09/21 07:11:35;;;;;;;9.15;5.40;;;;;;;18.68;76.14;98236.91;5085816;28;20359;-75
2023/09/21 07:14:03;;;;;;;8.20;5.63;;;;;;;18.77;76.12;98235.09;5084592;28;20068;-75
2023/09/21 07:16:30;;;;;;;9.38;5.80;;;;;;;18.80;75.41;98235.59;5067881;28;20060;-75
2023/09/21 07:18:57;;;;;;;6.97;5.40;;;;;;;18.83;75.14;98227.22;5067756;28;20040;-75
2023/09/21 07:21:26;;;;;;;7.65;5.72;;;;;;;18.74;75.63;98236.25;5051298;28;20263;-75
2023/09/21 07:23:52;;;;;;;6.75;5.47;;;;;;;18.95;74.78;98246.53;5086366;28;20036;-74
2023/09/21 07:26:21;;;;;;;7.32;5.25;;;;;;;19.03;74.81;98232.28;5092076;28;20195;-75
2023/09/21 07:28:48;;;;;;;12.15;5.22;;;;;;;19.08;74.68;98246.06;5092140;28;20371;-75
2023/09/21 07:31:15;;;;;;;14.40;5.25;;;;;;;19.15;74.01;98247.91;5092638;28;20165;-75
2023/09/21 07:33:42;;;;;;;10.45;6.13;;;;;;;18.91;74.06;98191.50;5091473;28;20115;-75
2023/09/21 07:36:11;;;;;;;5.68;5.00;;;;;;;18.21;74.14;98071.09;5090933;28;20287;-75
2023/09/21 07:38:39;;;;;;;8.38;5.43;;;;;;;19.24;74.14;98243.41;5074439;28;20060;-75
2023/09/21 07:41:07;;;;;;;6.28;4.85;;;;;;;19.26;73.00;98236.00;5092472;28;20318;-76
2023/09/21 07:43:34;;;;;;;9.50;5.20;;;;;;;19.25;72.43;98234.34;5074235;28;20060;-76
2023/09/21 07:46:01;;;;;;;7.05;4.63;;;;;;;19.30;72.97;98242.72;5074392;28;20058;-74
2023/09/21 07:48:29;;;;;;;8.30;5.80;;;;;;;19.42;72.33;98236.06;5092165;28;20300;-74
2023/09/21 07:50:56;;;;;;;10.00;5.60;;;;;;;19.47;72.18;98239.09;5091756;28;20052;-74
2023/09/21 07:53:23;;;;;;;7.07;4.95;;;;;;;19.48;71.84;98242.59;5091738;28;20232;-74
2023/09/21 07:56:00;;;;;;;7.43;4.28;;;;;;;19.57;73.01;98235.38;5091720;28;20283;-74
2023/09/21 07:58:27;;;;;;;6.70;5.30;;;;;;;19.60;72.01;98229.66;5090894;28;20097;-75
2023/09/21 08:00:55;;;;;;;5.95;4.82;;;;;;;19.36;71.51;98188.34;5091372;28;20045;-75
2023/09/21 08:03:25;;;;;;;10.50;6.47;;;;;;;19.68;70.67;98238.56;5090484;28;20284;-74
2023/09/21 08:05:52;;;;;;;9.73;5.32;;;;;;;19.67;70.03;98225.31;5091936;28;20044;-74
2023/09/21 08:08:19;;;;;;;7.07;4.78;;;;;;;19.27;70.76;98149.06;5074019;28;20036;-75
2023/09/21 08:10:46;;;;;;;11.30;4.22;;;;;;;19.81;70.88;98216.56;5091175;28;20048;-74
2023/09/21 08:13:14;;;;;;;9.38;4.97;;;;;;;19.27;69.65;98127.56;5092061;28;20098;-74
2023/09/21 08:15:44;;;;;;;8.35;5.80;;;;;;;19.87;70.10;98207.81;5091834;28;20183;-74
2023/09/21 08:18:11;;;;;;;8.45;4.72;;;;;;;19.53;69.27;98136.28;5073992;28;20205;-75
2023/09/21 08:20:39;;;;;;;6.63;4.70;;;;;;;19.82;69.03;98170.72;5090794;28;20120;-75
2023/09/21 08:23:07;;;;;;;8.23;4.97;;;;;;;19.77;69.11;98150.69;5091380;28;20211;-74
2023/09/21 08:25:34;;;;;;;7.72;4.88;;;;;;;20.00;68.56;98185.78;5091317;28;20040;-74
2023/09/21 08:28:03;;;;;;;8.48;5.30;;;;;;;19.89;68.71;98175.41;5091302;28;20049;-74
2023/09/21 08:30:32;;;;;;;8.65;4.72;;;;;;;19.80;68.03;98143.16;5091631;28;20044;-74
2023/09/21 08:32:59;;;;;;;8.60;4.53;;;;;;;19.98;68.18;98168.97;5091591;28;20041;-74
2023/09/21 08:35:26;;;;;;;5.78;4.30;;;;;;;20.41;67.92;98216.94;5090718;28;20055;-74
2023/09/21 08:37:53;;;;;;;5.97;4.28;;;;;;;20.21;67.46;98153.78;5088279;28;20044;-74
2023/09/21 08:40:22;;;;;;;9.13;4.50;;;;;;;20.56;67.85;98194.69;5070553;28;20044;-74
2023/09/21 08:42:53;;;;;;;6.68;4.72;;;;;;;20.62;66.55;98186.75;5087393;28;20109;-74
2023/09/21 08:45:23;;;;;;;9.18;4.45;;;;;;;20.66;66.98;98184.53;5087807;28;20036;-74
2023/09/21 08:47:52;;;;;;;11.77;4.78;;;;;;;20.72;66.97;98183.81;5087834;28;20052;-74
2023/09/21 08:50:18;;;;;;;7.80;4.20;;;;;;;20.84;65.21;98174.31;5088264;28;20312;-74
2023/09/21 08:52:48;;;;;;;5.80;4.20;;;;;;;20.87;65.19;98173.97;5087085;28;20204;-75
2023/09/21 08:55:16;;;;;;;7.40;4.63;;;;;;;20.82;65.06;98160.19;5088160;28;20044;-74
2023/09/21 08:57:43;;;;;;;12.95;4.82;;;;;;;20.57;65.94;98129.91;5087889;28;20227;-74
2023/09/21 09:00:11;;;;;;;9.65;4.70;;;;;;;20.60;65.17;98131.41;5088370;28;20315;-74
2023/09/21 09:02:38;;;;;;;7.65;4.13;;;;;;;20.74;64.57;98122.56;5087964;28;20056;-74
2023/09/21 09:05:08;;;;;;;6.63;4.13;;;;;;;21.06;65.42;98170.00;5088027;28;20040;-75
2023/09/21 09:07:39;;;;;;;6.43;4.45;;;;;;;20.96;63.70;98158.59;5069222;28;20239;-74
2023/09/21 09:10:08;;;;;;;4.97;3.60;;;;;;;21.12;65.42;98171.97;5086638;28;20045;-74
2023/09/21 09:12:37;;;;;;;6.85;3.90;;;;;;;21.23;63.80;98159.94;5088148;28;20066;-74
2023/09/21 09:15:05;;;;;;;7.57;3.95;;;;;;;20.90;65.31;98113.53;5087463;28;20040;-75
2023/09/21 09:17:32;;;;;;;6.88;3.60;;;;;;;21.29;63.77;98160.03;5087598;28;20196;-75
2023/09/21 09:20:02;;;;;;;6.07;4.35;;;;;;;21.06;62.71;98116.13;5086595;28;20247;-75
2023/09/21 09:22:32;;;;;;;10.73;4.53;;;;;;;21.32;62.69;98148.91;5087622;28;20060;-74
2023/09/21 09:25:04;;;;;;;7.88;3.42;;;;;;;21.45;62.78;98149.13;5070063;28;20056;-74
2023/09/21 09:27:31;;;;;;;5.80;3.97;;;;;;;21.26;62.74;98108.38;5087369;28;20044;-75
2023/09/21 09:29:59;;;;;;;9.52;4.20;;;;;;;21.53;62.64;98133.91;5087399;28;20064;-75
2023/09/21 09:32:35;;;;;;;10.50;3.78;;;;;;;21.30;62.00;98085.44;5086954;28;20044;-75
2023/09/21 09:35:04;;;;;;;5.93;3.20;;;;;;;21.33;62.55;98085.06;5087649;28;20052;-75
2023/09/21 09:37:34;;;;;;;7.47;3.60;;;;;;;21.29;61.61;98065.75;5087212;28;20183;-75
2023/09/21 09:40:18;;;;;;;10.23;3.70;;;;;;;21.83;59.83;98140.19;5087381;28;20075;-74
2023/09/21 09:42:46;;;;;;;4.88;3.20;;;;;;;21.52;60.46;98084.53;5087185;28;20074;-74
2023/09/21 09:45:18;;;;;;;8.50;3.80;;;;;;;21.96;59.05;98116.09;5087005;28;20040;-74
2023/09/21 09:47:50;;;;;;;5.15;3.72;;;;;;;21.90;58.87;98131.16;5085522;28;20044;-74
2023/09/21 09:50:23;;;;;;;7.28;3.30;;;;;;;21.86;59.16;98124.47;5087469;28;20103;-74
2023/09/21 09:53:00;;;;;;;8.30;4.03;;;;;;;21.94;60.10;98108.19;5086833;28;20040;-74
2023/09/21 09:55:31;;;;;;;9.02;3.50;;;;;;;22.05;57.87;98096.94;5085999;28;20203;-74
2023/09/21 09:58:00;;;;;;;4.93;3.25;;;;;;;21.74;59.10;98047.72;5086934;28;20048;-74
2023/09/21 10:00:27;;;;;;;3.55;2.90;;;;;;;22.04;58.67;98083.63;5087176;28;20048;-74
2023/09/21 10:02:56;;;;;;;7.22;3.42;;;;;;;22.12;57.95;98096.19;5069205;28;20037;-75
2023/09/21 10:05:25;;;;;;;8.00;3.28;;;;;;;22.22;57.32;98081.38;5085739;28;20075;-74
2023/09/21 10:07:59;;;;;;;5.20;2.65;;;;;;;22.30;58.01;98083.13;5086946;28;20063;-74
2023/09/21 10:10:30;;;;;;;5.03;3.50;;;;;;;21.73;57.42;97975.94;5086632;28;20059;-74
2023/09/21 10:12:58;;;;;;;6.20;3.72;;;;;;;22.26;55.90;98027.84;5086465;28;20045;-74
2023/09/21 10:15:26;;;;;;;4.72;2.92;;;;;;;22.13;56.52;97989.94;5085529;28;20107;-75
2023/09/21 10:17:57;;;;;;;4.55;2.90;;;;;;;22.53;56.42;98046.03;5085542;28;20045;-74
2023/09/21 10:20:27;;;;;;;6.03;2.85;;;;;;;22.58;56.66;98061.69;5087325;28;20056;-74
2023/09/21 10:22:58;;;;;;;6.45;2.97;;;;;;;22.70;55.14;98073.66;5087360;28;20041;-74
2023/09/21 10:25:41;;;;;;;4.32;2.53;;;;;;;22.76;55.57;98055.84;5087861;28;20028;-75
2023/09/21 10:28:39;;;;;;;6.47;3.40;;;;;;;22.63;53.97;97987.19;5087637;28;20052;-74
2023/09/21 10:31:24;;;;;;;5.40;3.00;;;;;;;22.99;54.05;98062.69;5008345;28;20043;-74
2023/09/21 10:34:13;;;;;;;5.22;2.63;;;;;;;23.29;51.86;98063.38;5078291;28;20041;-74
2023/09/21 10:36:50;;;;;;;5.80;3.03;;;;;;;22.71;52.18;97973.53;5087505;28;20116;-74
2023/09/21 10:39:28;;;;;;;5.22;2.33;;;;;;;23.22;50.60;97992.22;5085967;28;20036;-74
2023/09/21 10:41:56;;;;;;;4.43;2.63;;;;;;;23.36;52.29;98069.69;5085799;28;20307;-74
2023/09/21 10:45:02;;;;;;;4.25;3.00;;;;;;;22.62;52.11;97936.91;5086229;28;20036;-75
2023/09/21 10:47:35;;;;;;;5.85;2.85;;;;;;;23.18;52.36;98017.13;5035852;28;20131;-74
2023/09/21 10:50:03;;;;;;;8.95;3.10;;;;;;;23.52;51.33;98052.31;5085799;28;20143;-74
2023/09/21 10:52:31;;;;;;;5.03;2.85;;;;;;;23.59;51.77;98039.69;5085360;28;20040;-74
2023/09/21 10:54:59;;;;;;;8.80;3.17;;;;;;;23.75;51.06;98025.00;5085717;28;20086;-74
2023/09/21 10:57:27;;;;;;;4.07;2.85;;;;;;;23.38;52.02;97987.56;5084693;28;20105;-74
2023/09/21 10:59:59;;;;;;;9.00;3.65;;;;;;;23.29;52.37;97987.72;5085599;28;20086;-74
2023/09/21 11:02:27;;;;;;;3.83;2.67;;;;;;;23.64;52.70;98020.97;5085592;28;20067;-74
2023/09/21 11:04:55;;;;;;;7.35;3.28;;;;;;;23.06;52.25;97938.47;5084912;28;20304;-74
2023/09/21 11:07:22;;;;;;;5.18;3.00;;;;;;;23.77;51.11;98017.50;5085509;28;20358;-74
2023/09/21 11:09:52;;;;;;;6.28;3.25;;;;;;;23.92;51.15;98010.09;5085739;28;20045;-74
2023/09/21 11:12:21;;;;;;;5.68;3.33;;;;;;;23.84;51.64;98014.84;5085666;28;20049;-74
2023/09/21 11:14:49;;;;;;;4.30;3.30;;;;;;;23.93;51.76;98011.75;5085464;28;20188;-74
2023/09/21 11:17:17;;;;;;;6.53;2.65;;;;;;;24.10;50.32;98006.03;5084727;28;20119;-73
2023/09/21 11:19:45;;;;;;;6.57;2.67;;;;;;;24.00;50.46;97988.28;5085364;28;20049;-74
2023/09/21 11:22:12;;;;;;;4.32;2.55;;;;;;;23.89;51.28;98024.00;5085359;28;20048;-73
2023/09/21 11:24:40;;;;;;;5.80;2.97;;;;;;;23.81;50.30;97953.84;5084979;28;20230;-74
2023/09/21 11:27:09;;;;;;;6.55;3.25;;;;;;;24.09;49.95;97961.06;5084238;28;20051;-74
2023/09/21 11:29:39;;;;;;;8.93;3.28;;;;;;;23.90;49.54;97914.75;5085356;28;20049;-74
2023/09/21 11:32:08;;;;;;;5.32;2.83;;;;;;;23.67;49.88;97869.13;5085816;28;20040;-74
2023/09/21 11:34:39;;;;;;;5.88;2.88;;;;;;;24.49;48.55;97964.66;5084259;28;20064;-74
2023/09/21 11:37:08;;;;;;;4.30;2.80;;;;;;;24.44;47.90;97959.88;5084143;28;20288;-74
2023/09/21 11:39:37;;;;;;;5.82;3.03;;;;;;;24.52;47.63;97954.25;5085358;28;20056;-74